sensor_id;sensor_type;location;lat;lon;timestamp;temperature;humidity
41882;DHT22;27562;47.524;12.404;2023-07-30T00:00:49;17.90;99.90
41882;DHT22;27562;47.524;12.404;2023-07-30T00:03:16;17.90;99.90
41882;DHT22;27562;47.524;12.404;2023-07-30T00:05:42;17.90;99.90
41882;DHT22;27562;47.524;12.404;2023-07-30T00:08:07;18.00;99.90
41882;DHT22;27562;47.524;12.404;2023-07-30T00:10:35;17.90;99.90
41882;DHT22;27562;47.524;12.404;2023-07-30T00:13:00;17.90;99.90
41882;DHT22;27562;47.524;12.404;2023-07-30T00:15:26;17.90;99.90
41882;DHT22;27562;47.524;12.404;2023-07-30T00:17:52;17.80;99.90
41882;DHT22;27562;47.524;12.404;2023-07-30T00:20:17;17.80;99.90
41882;DHT22;27562;47.524;12.404;2023-07-30T00:22:43;17.70;99.90
41882;DHT22;27562;47.524;12.404;2023-07-30T00:25:08;17.60;99.90
41882;DHT22;27562;47.524;12.404;2023-07-30T00:27:34;17.70;99.90
41882;DHT22;27562;47.524;12.404;2023-07-30T00:30:00;17.60;99.90
41882;DHT22;27562;47.524;12.404;2023-07-30T00:32:26;17.70;99.90
41882;DHT22;27562;47.524;12.404;2023-07-30T00:34:51;17.60;99.90
41882;DHT22;27562;47.524;12.404;2023-07-30T00:37:17;17.70;99.90
41882;DHT22;27562;47.524;12.404;2023-07-30T00:39:42;17.70;99.90
41882;DHT22;27562;47.524;12.404;2023-07-30T00:42:08;17.70;99.90
41882;DHT22;27562;47.524;12.404;2023-07-30T00:44:34;17.70;99.90
41882;DHT22;27562;47.524;12.404;2023-07-30T00:46:59;17.70;99.90
41882;DHT22;27562;47.524;12.404;2023-07-30T00:49:25;17.70;99.90
41882;DHT22;27562;47.524;12.404;2023-07-30T00:51:51;17.80;99.90
41882;DHT22;27562;47.524;12.404;2023-07-30T00:54:17;17.70;99.90
41882;DHT22;27562;47.524;12.404;2023-07-30T00:56:50;17.70;99.90
41882;DHT22;27562;47.524;12.404;2023-07-30T00:59:16;17.60;99.90
41882;DHT22;27562;47.524;12.404;2023-07-30T01:01:42;17.60;99.90
41882;DHT22;27562;47.524;12.404;2023-07-30T01:04:10;17.60;99.90
41882;DHT22;27562;47.524;12.404;2023-07-30T01:06:35;17.60;99.90
41882;DHT22;27562;47.524;12.404;2023-07-30T01:09:01;17.50;99.90
41882;DHT22;27562;47.524;12.404;2023-07-30T01:11:27;17.40;99.90
41882;DHT22;27562;47.524;12.404;2023-07-30T01:13:54;17.40;99.90
41882;DHT22;27562;47.524;12.404;2023-07-30T01:16:20;17.30;99.90
41882;DHT22;27562;47.524;12.404;2023-07-30T01:18:46;17.30;99.90
41882;DHT22;27562;47.524;12.404;2023-07-30T01:21:12;17.20;99.90
41882;DHT22;27562;47.524;12.404;2023-07-30T01:23:37;17.20;99.90
41882;DHT22;27562;47.524;12.404;2023-07-30T01:26:10;17.10;99.90
41882;DHT22;27562;47.524;12.404;2023-07-30T01:28:49;17.20;99.90
41882;DHT22;27562;47.524;12.404;2023-07-30T01:31:18;17.20;99.90
41882;DHT22;27562;47.524;12.404;2023-07-30T01:33:47;17.20;99.90
41882;DHT22;27562;47.524;12.404;2023-07-30T01:36:15;17.30;99.90
41882;DHT22;27562;47.524;12.404;2023-07-30T01:38:43;17.30;99.90
41882;DHT22;27562;47.524;12.404;2023-07-30T01:41:09;17.30;99.90
41882;DHT22;27562;47.524;12.404;2023-07-30T01:43:35;17.30;99.90
41882;DHT22;27562;47.524;12.404;2023-07-30T01:46:00;17.20;99.90
41882;DHT22;27562;47.524;12.404;2023-07-30T01:48:27;17.20;99.90
41882;DHT22;27562;47.524;12.404;2023-07-30T01:50:52;17.20;99.90
41882;DHT22;27562;47.524;12.404;2023-07-30T01:53:18;17.20;99.90
41882;DHT22;27562;47.524;12.404;2023-07-30T01:55:43;17.30;99.90
41882;DHT22;27562;47.524;12.404;2023-07-30T01:58:14;17.30;99.90
41882;DHT22;27562;47.524;12.404;2023-07-30T02:00:40;17.30;99.90
41882;DHT22;27562;47.524;12.404;2023-07-30T02:03:06;17.20;99.90
41882;DHT22;27562;47.524;12.404;2023-07-30T02:05:32;17.10;99.90
41882;DHT22;27562;47.524;12.404;2023-07-30T02:07:58;17.10;99.90
41882;DHT22;27562;47.524;12.404;2023-07-30T02:10:27;17.00;99.90
41882;DHT22;27562;47.524;12.404;2023-07-30T02:12:52;17.00;99.90
41882;DHT22;27562;47.524;12.404;2023-07-30T02:15:18;17.00;99.90
41882;DHT22;27562;47.524;12.404;2023-07-30T02:17:44;17.00;99.90
41882;DHT22;27562;47.524;12.404;2023-07-30T02:20:09;17.10;99.90
41882;DHT22;27562;47.524;12.404;2023-07-30T02:22:35;17.10;99.90
41882;DHT22;27562;47.524;12.404;2023-07-30T02:25:01;17.20;99.90
41882;DHT22;27562;47.524;12.404;2023-07-30T02:27:26;17.10;99.90
41882;DHT22;27562;47.524;12.404;2023-07-30T02:29:52;17.10;99.90
41882;DHT22;27562;47.524;12.404;2023-07-30T02:32:18;17.00;99.90
41882;DHT22;27562;47.524;12.404;2023-07-30T02:34:43;16.90;99.90
41882;DHT22;27562;47.524;12.404;2023-07-30T02:37:09;16.80;99.90
41882;DHT22;27562;47.524;12.404;2023-07-30T02:39:34;16.80;99.90
41882;DHT22;27562;47.524;12.404;2023-07-30T02:42:00;16.70;99.90
41882;DHT22;27562;47.524;12.404;2023-07-30T02:44:26;16.70;99.90
41882;DHT22;27562;47.524;12.404;2023-07-30T02:46:51;16.60;99.90
41882;DHT22;27562;47.524;12.404;2023-07-30T02:49:17;16.60;99.90
41882;DHT22;27562;47.524;12.404;2023-07-30T02:51:43;16.60;99.90
41882;DHT22;27562;47.524;12.404;2023-07-30T02:54:13;16.60;99.90
41882;DHT22;27562;47.524;12.404;2023-07-30T02:56:39;16.50;99.90
41882;DHT22;27562;47.524;12.404;2023-07-30T02:59:06;16.50;99.90
41882;DHT22;27562;47.524;12.404;2023-07-30T03:01:32;16.50;99.90
41882;DHT22;27562;47.524;12.404;2023-07-30T03:03:57;16.50;99.90
41882;DHT22;27562;47.524;12.404;2023-07-30T03:06:23;16.50;99.90
41882;DHT22;27562;47.524;12.404;2023-07-30T03:08:49;16.50;99.90
41882;DHT22;27562;47.524;12.404;2023-07-30T03:11:14;16.50;99.90
41882;DHT22;27562;47.524;12.404;2023-07-30T03:13:40;16.50;99.90
41882;DHT22;27562;47.524;12.404;2023-07-30T03:16:05;16.50;99.90
41882;DHT22;27562;47.524;12.404;2023-07-30T03:18:31;16.50;99.90
41882;DHT22;27562;47.524;12.404;2023-07-30T03:20:58;16.50;99.90
41882;DHT22;27562;47.524;12.404;2023-07-30T03:23:25;16.50;99.90
41882;DHT22;27562;47.524;12.404;2023-07-30T03:25:50;16.60;99.90
41882;DHT22;27562;47.524;12.404;2023-07-30T03:28:16;16.60;99.90
41882;DHT22;27562;47.524;12.404;2023-07-30T03:30:42;16.70;99.90
41882;DHT22;27562;47.524;12.404;2023-07-30T03:33:07;16.80;99.90
41882;DHT22;27562;47.524;12.404;2023-07-30T03:35:33;16.80;99.90
41882;DHT22;27562;47.524;12.404;2023-07-30T03:37:59;16.90;99.90
41882;DHT22;27562;47.524;12.404;2023-07-30T03:40:24;16.90;99.90
41882;DHT22;27562;47.524;12.404;2023-07-30T03:42:51;16.90;99.90
41882;DHT22;27562;47.524;12.404;2023-07-30T03:45:17;16.90;99.90
41882;DHT22;27562;47.524;12.404;2023-07-30T03:47:42;17.00;99.90
41882;DHT22;27562;47.524;12.404;2023-07-30T03:50:08;16.90;99.90
41882;DHT22;27562;47.524;12.404;2023-07-30T03:52:34;17.00;99.90
41882;DHT22;27562;47.524;12.404;2023-07-30T03:55:00;17.00;99.90
41882;DHT22;27562;47.524;12.404;2023-07-30T03:57:25;17.00;99.90
41882;DHT22;27562;47.524;12.404;2023-07-30T03:59:51;17.00;99.90
41882;DHT22;27562;47.524;12.404;2023-07-30T04:02:17;17.00;99.90
41882;DHT22;27562;47.524;12.404;2023-07-30T04:04:43;16.90;99.90
41882;DHT22;27562;47.524;12.404;2023-07-30T04:07:13;16.90;99.90
41882;DHT22;27562;47.524;12.404;2023-07-30T04:09:39;16.90;99.90
41882;DHT22;27562;47.524;12.404;2023-07-30T04:12:05;16.90;99.90
41882;DHT22;27562;47.524;12.404;2023-07-30T04:14:31;16.90;99.90
41882;DHT22;27562;47.524;12.404;2023-07-30T04:16:56;16.90;99.90
41882;DHT22;27562;47.524;12.404;2023-07-30T04:19:22;16.90;99.90
41882;DHT22;27562;47.524;12.404;2023-07-30T04:21:47;16.90;99.90
41882;DHT22;27562;47.524;12.404;2023-07-30T04:24:13;16.90;99.90
41882;DHT22;27562;47.524;12.404;2023-07-30T04:26:39;16.90;99.90
41882;DHT22;27562;47.524;12.404;2023-07-30T04:29:04;16.80;99.90
41882;DHT22;27562;47.524;12.404;2023-07-30T04:31:30;16.80;99.90
41882;DHT22;27562;47.524;12.404;2023-07-30T04:33:58;16.70;99.90
41882;DHT22;27562;47.524;12.404;2023-07-30T04:36:23;16.70;99.90
41882;DHT22;27562;47.524;12.404;2023-07-30T04:38:49;16.70;99.90
41882;DHT22;27562;47.524;12.404;2023-07-30T04:41:15;16.70;99.90
41882;DHT22;27562;47.524;12.404;2023-07-30T04:43:40;16.70;99.90
41882;DHT22;27562;47.524;12.404;2023-07-30T04:46:06;16.60;99.90
41882;DHT22;27562;47.524;12.404;2023-07-30T04:48:32;16.60;99.90
41882;DHT22;27562;47.524;12.404;2023-07-30T04:50:57;16.70;99.90
41882;DHT22;27562;47.524;12.404;2023-07-30T04:53:23;16.60;99.90
41882;DHT22;27562;47.524;12.404;2023-07-30T04:55:52;16.70;99.90
41882;DHT22;27562;47.524;12.404;2023-07-30T04:58:19;16.80;99.90
41882;DHT22;27562;47.524;12.404;2023-07-30T05:00:45;16.80;99.90
41882;DHT22;27562;47.524;12.404;2023-07-30T05:03:11;16.80;99.90
41882;DHT22;27562;47.524;12.404;2023-07-30T05:05:36;16.70;99.90
41882;DHT22;27562;47.524;12.404;2023-07-30T05:08:02;16.70;99.90
41882;DHT22;27562;47.524;12.404;2023-07-30T05:10:28;16.80;99.90
41882;DHT22;27562;47.524;12.404;2023-07-30T05:12:53;16.80;99.90
41882;DHT22;27562;47.524;12.404;2023-07-30T05:15:19;16.80;99.90
41882;DHT22;27562;47.524;12.404;2023-07-30T05:17:44;16.80;99.90
41882;DHT22;27562;47.524;12.404;2023-07-30T05:20:10;16.80;99.90
41882;DHT22;27562;47.524;12.404;2023-07-30T05:22:36;16.80;99.90
41882;DHT22;27562;47.524;12.404;2023-07-30T05:25:02;16.80;99.90
41882;DHT22;27562;47.524;12.404;2023-07-30T05:27:28;16.80;99.90
41882;DHT22;27562;47.524;12.404;2023-07-30T05:29:54;16.80;99.90
41882;DHT22;27562;47.524;12.404;2023-07-30T05:32:20;16.90;99.90
41882;DHT22;27562;47.524;12.404;2023-07-30T05:34:46;16.90;99.90
41882;DHT22;27562;47.524;12.404;2023-07-30T05:37:12;16.90;99.90
41882;DHT22;27562;47.524;12.404;2023-07-30T05:39:37;17.00;99.90
41882;DHT22;27562;47.524;12.404;2023-07-30T05:42:03;17.00;99.90
41882;DHT22;27562;47.524;12.404;2023-07-30T05:44:29;17.00;99.90
41882;DHT22;27562;47.524;12.404;2023-07-30T05:46:54;17.00;99.90
41882;DHT22;27562;47.524;12.404;2023-07-30T05:49:20;17.00;99.90
41882;DHT22;27562;47.524;12.404;2023-07-30T05:51:46;17.10;99.90
41882;DHT22;27562;47.524;12.404;2023-07-30T05:54:12;17.10;99.90
41882;DHT22;27562;47.524;12.404;2023-07-30T05:56:38;17.10;99.90
41882;DHT22;27562;47.524;12.404;2023-07-30T05:59:04;17.10;99.90
41882;DHT22;27562;47.524;12.404;2023-07-30T06:01:30;17.10;99.90
41882;DHT22;27562;47.524;12.404;2023-07-30T06:03:55;17.10;99.90
41882;DHT22;27562;47.524;12.404;2023-07-30T06:06:21;17.10;99.90
41882;DHT22;27562;47.524;12.404;2023-07-30T06:08:53;17.20;99.90
41882;DHT22;27562;47.524;12.404;2023-07-30T06:11:18;17.20;99.90
41882;DHT22;27562;47.524;12.404;2023-07-30T06:13:44;17.20;99.90
41882;DHT22;27562;47.524;12.404;2023-07-30T06:16:10;17.30;99.90
41882;DHT22;27562;47.524;12.404;2023-07-30T06:18:35;17.30;99.90
41882;DHT22;27562;47.524;12.404;2023-07-30T06:21:01;17.40;99.90
41882;DHT22;27562;47.524;12.404;2023-07-30T06:23:27;17.40;99.90
41882;DHT22;27562;47.524;12.404;2023-07-30T06:25:52;17.40;99.90
41882;DHT22;27562;47.524;12.404;2023-07-30T06:28:18;17.50;99.90
41882;DHT22;27562;47.524;12.404;2023-07-30T06:30:44;17.60;99.90
41882;DHT22;27562;47.524;12.404;2023-07-30T06:33:09;17.60;99.90
41882;DHT22;27562;47.524;12.404;2023-07-30T06:35:35;17.70;99.90
41882;DHT22;27562;47.524;12.404;2023-07-30T06:38:01;17.80;99.90
41882;DHT22;27562;47.524;12.404;2023-07-30T06:40:26;17.90;99.90
41882;DHT22;27562;47.524;12.404;2023-07-30T06:42:52;17.90;99.90
41882;DHT22;27562;47.524;12.404;2023-07-30T06:45:18;17.90;99.90
41882;DHT22;27562;47.524;12.404;2023-07-30T06:47:44;18.00;99.90
41882;DHT22;27562;47.524;12.404;2023-07-30T06:50:10;18.10;99.90
41882;DHT22;27562;47.524;12.404;2023-07-30T06:52:36;18.10;99.90
41882;DHT22;27562;47.524;12.404;2023-07-30T06:55:02;18.20;99.90
41882;DHT22;27562;47.524;12.404;2023-07-30T06:57:29;18.10;99.90
41882;DHT22;27562;47.524;12.404;2023-07-30T06:59:55;18.10;99.90
41882;DHT22;27562;47.524;12.404;2023-07-30T07:02:20;18.20;99.90
41882;DHT22;27562;47.524;12.404;2023-07-30T07:04:46;18.20;99.90
41882;DHT22;27562;47.524;12.404;2023-07-30T07:07:12;18.20;99.90
41882;DHT22;27562;47.524;12.404;2023-07-30T07:09:37;18.30;99.90
41882;DHT22;27562;47.524;12.404;2023-07-30T07:12:03;18.30;99.90
41882;DHT22;27562;47.524;12.404;2023-07-30T07:14:29;18.40;99.90
41882;DHT22;27562;47.524;12.404;2023-07-30T07:16:55;18.60;99.90
41882;DHT22;27562;47.524;12.404;2023-07-30T07:19:24;18.70;99.90
41882;DHT22;27562;47.524;12.404;2023-07-30T07:21:50;18.80;99.90
41882;DHT22;27562;47.524;12.404;2023-07-30T07:24:16;19.00;99.90
41882;DHT22;27562;47.524;12.404;2023-07-30T07:26:41;19.10;99.90
41882;DHT22;27562;47.524;12.404;2023-07-30T07:29:07;19.30;99.90
41882;DHT22;27562;47.524;12.404;2023-07-30T07:31:33;19.50;99.90
41882;DHT22;27562;47.524;12.404;2023-07-30T07:33:58;19.60;99.90
41882;DHT22;27562;47.524;12.404;2023-07-30T07:36:24;19.70;99.90
41882;DHT22;27562;47.524;12.404;2023-07-30T07:38:50;19.70;99.90
41882;DHT22;27562;47.524;12.404;2023-07-30T07:41:16;19.70;99.90
41882;DHT22;27562;47.524;12.404;2023-07-30T07:43:46;19.60;99.90
41882;DHT22;27562;47.524;12.404;2023-07-30T07:46:12;19.50;99.90
41882;DHT22;27562;47.524;12.404;2023-07-30T07:48:41;19.50;99.90
41882;DHT22;27562;47.524;12.404;2023-07-30T07:51:09;19.60;99.90
41882;DHT22;27562;47.524;12.404;2023-07-30T07:53:34;19.70;99.90
41882;DHT22;27562;47.524;12.404;2023-07-30T07:56:00;19.80;99.90
41882;DHT22;27562;47.524;12.404;2023-07-30T07:58:26;19.90;99.90
41882;DHT22;27562;47.524;12.404;2023-07-30T08:00:54;20.10;99.90
41882;DHT22;27562;47.524;12.404;2023-07-30T08:03:21;20.30;99.90
41882;DHT22;27562;47.524;12.404;2023-07-30T08:05:47;20.40;99.90
41882;DHT22;27562;47.524;12.404;2023-07-30T08:08:13;20.50;99.90
41882;DHT22;27562;47.524;12.404;2023-07-30T08:10:39;20.70;99.90
41882;DHT22;27562;47.524;12.404;2023-07-30T08:13:05;20.80;99.90
41882;DHT22;27562;47.524;12.404;2023-07-30T08:15:32;21.00;99.90
41882;DHT22;27562;47.524;12.404;2023-07-30T08:17:58;21.10;99.90
41882;DHT22;27562;47.524;12.404;2023-07-30T08:20:23;21.00;99.90
41882;DHT22;27562;47.524;12.404;2023-07-30T08:22:49;20.90;99.90
41882;DHT22;27562;47.524;12.404;2023-07-30T08:25:15;20.90;99.90
41882;DHT22;27562;47.524;12.404;2023-07-30T08:27:40;20.90;99.90
41882;DHT22;27562;47.524;12.404;2023-07-30T08:30:07;20.90;99.90
41882;DHT22;27562;47.524;12.404;2023-07-30T08:32:33;20.90;99.90
41882;DHT22;27562;47.524;12.404;2023-07-30T08:34:58;20.80;99.90
41882;DHT22;27562;47.524;12.404;2023-07-30T08:37:24;20.70;99.90
41882;DHT22;27562;47.524;12.404;2023-07-30T08:39:51;20.60;99.90
41882;DHT22;27562;47.524;12.404;2023-07-30T08:42:17;20.60;99.90
41882;DHT22;27562;47.524;12.404;2023-07-30T08:44:43;20.70;99.90
41882;DHT22;27562;47.524;12.404;2023-07-30T08:47:10;20.80;99.90
41882;DHT22;27562;47.524;12.404;2023-07-30T08:49:35;20.80;99.90
41882;DHT22;27562;47.524;12.404;2023-07-30T08:52:02;20.70;99.90
41882;DHT22;27562;47.524;12.404;2023-07-30T08:54:30;20.70;99.90
41882;DHT22;27562;47.524;12.404;2023-07-30T08:56:58;20.70;99.90
41882;DHT22;27562;47.524;12.404;2023-07-30T08:59:24;20.70;99.90
41882;DHT22;27562;47.524;12.404;2023-07-30T09:01:54;20.70;99.90
41882;DHT22;27562;47.524;12.404;2023-07-30T09:04:21;20.70;99.90
41882;DHT22;27562;47.524;12.404;2023-07-30T09:06:50;20.60;99.90
41882;DHT22;27562;47.524;12.404;2023-07-30T09:09:16;20.60;99.90
41882;DHT22;27562;47.524;12.404;2023-07-30T09:11:42;20.60;99.90
41882;DHT22;27562;47.524;12.404;2023-07-30T09:14:07;20.60;99.90
41882;DHT22;27562;47.524;12.404;2023-07-30T09:16:34;20.60;99.90
41882;DHT22;27562;47.524;12.404;2023-07-30T09:19:00;20.80;99.90
41882;DHT22;27562;47.524;12.404;2023-07-30T09:21:33;21.00;99.90
41882;DHT22;27562;47.524;12.404;2023-07-30T09:24:02;21.20;99.90
41882;DHT22;27562;47.524;12.404;2023-07-30T09:26:45;21.40;99.90
41882;DHT22;27562;47.524;12.404;2023-07-30T09:29:12;21.60;99.90
41882;DHT22;27562;47.524;12.404;2023-07-30T09:31:52;21.70;99.90
41882;DHT22;27562;47.524;12.404;2023-07-30T09:34:20;21.70;99.90
41882;DHT22;27562;47.524;12.404;2023-07-30T09:36:46;21.70;99.90
41882;DHT22;27562;47.524;12.404;2023-07-30T09:39:21;21.50;99.90
41882;DHT22;27562;47.524;12.404;2023-07-30T09:41:47;21.40;99.90
41882;DHT22;27562;47.524;12.404;2023-07-30T09:44:15;21.30;99.90
41882;DHT22;27562;47.524;12.404;2023-07-30T09:46:43;21.30;99.90
41882;DHT22;27562;47.524;12.404;2023-07-30T09:49:09;21.20;99.90
41882;DHT22;27562;47.524;12.404;2023-07-30T09:51:37;21.10;99.90
41882;DHT22;27562;47.524;12.404;2023-07-30T09:54:04;21.00;99.90
41882;DHT22;27562;47.524;12.404;2023-07-30T09:56:31;20.80;99.90
41882;DHT22;27562;47.524;12.404;2023-07-30T09:58:56;20.60;99.90
41882;DHT22;27562;47.524;12.404;2023-07-30T10:01:23;20.50;99.90
41882;DHT22;27562;47.524;12.404;2023-07-30T10:03:50;20.30;99.90
41882;DHT22;27562;47.524;12.404;2023-07-30T10:06:16;20.20;99.90
41882;DHT22;27562;47.524;12.404;2023-07-30T10:08:44;20.10;99.90
41882;DHT22;27562;47.524;12.404;2023-07-30T10:11:11;20.00;99.90
41882;DHT22;27562;47.524;12.404;2023-07-30T10:13:37;20.00;99.90
41882;DHT22;27562;47.524;12.404;2023-07-30T10:16:12;20.00;99.90
41882;DHT22;27562;47.524;12.404;2023-07-30T10:18:41;20.10;99.90
41882;DHT22;27562;47.524;12.404;2023-07-30T10:21:08;20.10;99.90
41882;DHT22;27562;47.524;12.404;2023-07-30T10:24:06;20.20;99.90
41882;DHT22;27562;47.524;12.404;2023-07-30T10:26:35;20.20;99.90
41882;DHT22;27562;47.524;12.404;2023-07-30T10:29:15;20.30;99.90
41882;DHT22;27562;47.524;12.404;2023-07-30T10:31:43;20.30;99.90
41882;DHT22;27562;47.524;12.404;2023-07-30T10:34:10;20.30;99.90
41882;DHT22;27562;47.524;12.404;2023-07-30T10:36:47;20.30;99.90
41882;DHT22;27562;47.524;12.404;2023-07-30T10:39:15;20.40;99.90
41882;DHT22;27562;47.524;12.404;2023-07-30T10:41:43;20.50;99.90
41882;DHT22;27562;47.524;12.404;2023-07-30T10:44:18;20.60;99.90
41882;DHT22;27562;47.524;12.404;2023-07-30T10:46:44;20.60;99.90
41882;DHT22;27562;47.524;12.404;2023-07-30T10:49:10;20.70;99.90
41882;DHT22;27562;47.524;12.404;2023-07-30T10:51:37;21.00;99.90
41882;DHT22;27562;47.524;12.404;2023-07-30T10:54:06;21.10;99.90
41882;DHT22;27562;47.524;12.404;2023-07-30T10:56:35;21.20;99.90
41882;DHT22;27562;47.524;12.404;2023-07-30T10:59:03;21.30;99.90
41882;DHT22;27562;47.524;12.404;2023-07-30T11:01:31;21.40;99.90
41882;DHT22;27562;47.524;12.404;2023-07-30T11:03:56;21.50;99.90
41882;DHT22;27562;47.524;12.404;2023-07-30T11:06:23;21.70;99.90
41882;DHT22;27562;47.524;12.404;2023-07-30T11:08:49;22.00;99.90
41882;DHT22;27562;47.524;12.404;2023-07-30T11:11:15;22.40;99.90
41882;DHT22;27562;47.524;12.404;2023-07-30T11:13:46;22.60;99.90
41882;DHT22;27562;47.524;12.404;2023-07-30T11:16:13;22.80;99.90
41882;DHT22;27562;47.524;12.404;2023-07-30T11:18:40;22.90;99.90
41882;DHT22;27562;47.524;12.404;2023-07-30T11:23:34;23.20;99.90
41882;DHT22;27562;47.524;12.404;2023-07-30T11:26:01;23.50;99.90
41882;DHT22;27562;47.524;12.404;2023-07-30T11:28:31;23.70;99.90
41882;DHT22;27562;47.524;12.404;2023-07-30T11:31:10;23.80;99.90
41882;DHT22;27562;47.524;12.404;2023-07-30T11:33:38;23.80;99.90
41882;DHT22;27562;47.524;12.404;2023-07-30T11:36:06;23.80;99.90
41882;DHT22;27562;47.524;12.404;2023-07-30T11:38:32;23.80;99.90
41882;DHT22;27562;47.524;12.404;2023-07-30T11:40:59;23.60;99.90
41882;DHT22;27562;47.524;12.404;2023-07-30T11:43:24;23.60;99.90
41882;DHT22;27562;47.524;12.404;2023-07-30T11:46:06;23.50;99.90
41882;DHT22;27562;47.524;12.404;2023-07-30T11:48:33;23.30;99.90
41882;DHT22;27562;47.524;12.404;2023-07-30T11:50:58;23.20;99.90
41882;DHT22;27562;47.524;12.404;2023-07-30T11:53:47;23.30;99.90
41882;DHT22;27562;47.524;12.404;2023-07-30T11:56:26;23.40;99.90
41882;DHT22;27562;47.524;12.404;2023-07-30T12:01:24;23.50;99.90
41882;DHT22;27562;47.524;12.404;2023-07-30T12:03:53;23.50;99.90
41882;DHT22;27562;47.524;12.404;2023-07-30T12:06:19;23.50;99.90
41882;DHT22;27562;47.524;12.404;2023-07-30T12:08:44;23.70;99.90
41882;DHT22;27562;47.524;12.404;2023-07-30T12:11:10;23.80;99.90
41882;DHT22;27562;47.524;12.404;2023-07-30T12:13:44;23.90;99.90
41882;DHT22;27562;47.524;12.404;2023-07-30T12:16:11;23.90;99.90
41882;DHT22;27562;47.524;12.404;2023-07-30T12:18:38;24.00;99.90
41882;DHT22;27562;47.524;12.404;2023-07-30T12:21:04;24.00;99.90
41882;DHT22;27562;47.524;12.404;2023-07-30T12:23:32;24.00;99.90
41882;DHT22;27562;47.524;12.404;2023-07-30T12:25:58;24.10;99.90
41882;DHT22;27562;47.524;12.404;2023-07-30T12:28:23;24.20;99.90
41882;DHT22;27562;47.524;12.404;2023-07-30T12:30:49;24.20;99.90
41882;DHT22;27562;47.524;12.404;2023-07-30T12:33:15;24.40;99.90
41882;DHT22;27562;47.524;12.404;2023-07-30T12:35:40;24.40;99.90
41882;DHT22;27562;47.524;12.404;2023-07-30T12:38:06;24.30;99.90
41882;DHT22;27562;47.524;12.404;2023-07-30T12:40:32;24.30;99.90
41882;DHT22;27562;47.524;12.404;2023-07-30T12:43:01;24.50;99.90
41882;DHT22;27562;47.524;12.404;2023-07-30T12:45:27;24.70;99.90
41882;DHT22;27562;47.524;12.404;2023-07-30T12:47:53;24.70;99.90
41882;DHT22;27562;47.524;12.404;2023-07-30T12:50:18;24.80;99.90
41882;DHT22;27562;47.524;12.404;2023-07-30T12:52:44;24.90;99.90
41882;DHT22;27562;47.524;12.404;2023-07-30T12:55:09;25.00;99.90
41882;DHT22;27562;47.524;12.404;2023-07-30T12:57:35;25.10;99.90
41882;DHT22;27562;47.524;12.404;2023-07-30T13:00:02;25.20;99.90
41882;DHT22;27562;47.524;12.404;2023-07-30T13:02:30;25.40;99.90
41882;DHT22;27562;47.524;12.404;2023-07-30T13:05:00;25.60;99.90
41882;DHT22;27562;47.524;12.404;2023-07-30T13:07:26;25.70;99.90
41882;DHT22;27562;47.524;12.404;2023-07-30T13:10:04;25.80;99.90
41882;DHT22;27562;47.524;12.404;2023-07-30T13:12:30;25.80;99.90
41882;DHT22;27562;47.524;12.404;2023-07-30T13:14:57;25.70;99.90
41882;DHT22;27562;47.524;12.404;2023-07-30T13:17:24;25.70;99.70
41882;DHT22;27562;47.524;12.404;2023-07-30T13:19:50;25.80;99.50
41882;DHT22;27562;47.524;12.404;2023-07-30T13:22:16;25.80;99.30
41882;DHT22;27562;47.524;12.404;2023-07-30T13:24:43;25.80;99.40
41882;DHT22;27562;47.524;12.404;2023-07-30T13:27:09;25.80;96.50
41882;DHT22;27562;47.524;12.404;2023-07-30T13:29:36;25.70;97.50
41882;DHT22;27562;47.524;12.404;2023-07-30T13:32:03;25.70;98.00
41882;DHT22;27562;47.524;12.404;2023-07-30T13:34:32;25.80;98.10
41882;DHT22;27562;47.524;12.404;2023-07-30T13:36:58;26.00;97.70
41882;DHT22;27562;47.524;12.404;2023-07-30T13:39:25;26.20;98.40
41882;DHT22;27562;47.524;12.404;2023-07-30T13:41:51;26.40;96.60
41882;DHT22;27562;47.524;12.404;2023-07-30T13:44:17;26.40;95.60
41882;DHT22;27562;47.524;12.404;2023-07-30T13:46:44;26.50;94.40
41882;DHT22;27562;47.524;12.404;2023-07-30T13:49:10;26.50;93.60
41882;DHT22;27562;47.524;12.404;2023-07-30T13:51:36;26.30;94.80
41882;DHT22;27562;47.524;12.404;2023-07-30T13:54:03;26.20;94.90
41882;DHT22;27562;47.524;12.404;2023-07-30T13:56:31;26.10;95.50
41882;DHT22;27562;47.524;12.404;2023-07-30T13:58:57;26.00;94.70
41882;DHT22;27562;47.524;12.404;2023-07-30T14:01:23;25.80;94.30
41882;DHT22;27562;47.524;12.404;2023-07-30T14:03:51;25.50;94.80
41882;DHT22;27562;47.524;12.404;2023-07-30T14:06:18;25.30;95.30
41882;DHT22;27562;47.524;12.404;2023-07-30T14:08:44;25.10;95.90
41882;DHT22;27562;47.524;12.404;2023-07-30T14:11:10;24.90;97.10
41882;DHT22;27562;47.524;12.404;2023-07-30T14:13:37;24.60;96.50
41882;DHT22;27562;47.524;12.404;2023-07-30T14:16:03;24.40;98.10
41882;DHT22;27562;47.524;12.404;2023-07-30T14:18:30;24.10;99.90
41882;DHT22;27562;47.524;12.404;2023-07-30T14:20:56;23.80;99.90
41882;DHT22;27562;47.524;12.404;2023-07-30T14:23:22;23.50;99.70
41882;DHT22;27562;47.524;12.404;2023-07-30T14:25:48;23.30;99.90
41882;DHT22;27562;47.524;12.404;2023-07-30T14:28:14;23.10;99.90
41882;DHT22;27562;47.524;12.404;2023-07-30T14:30:40;22.90;99.90
41882;DHT22;27562;47.524;12.404;2023-07-30T14:33:12;22.60;99.90
41882;DHT22;27562;47.524;12.404;2023-07-30T14:35:39;22.30;99.90
41882;DHT22;27562;47.524;12.404;2023-07-30T14:38:05;21.80;99.90
41882;DHT22;27562;47.524;12.404;2023-07-30T14:40:32;21.30;99.90
41882;DHT22;27562;47.524;12.404;2023-07-30T14:42:58;20.60;99.90
41882;DHT22;27562;47.524;12.404;2023-07-30T14:45:25;20.20;99.90
41882;DHT22;27562;47.524;12.404;2023-07-30T14:47:51;19.90;99.90
41882;DHT22;27562;47.524;12.404;2023-07-30T14:50:17;20.00;99.90
41882;DHT22;27562;47.524;12.404;2023-07-30T14:52:43;20.00;99.90
41882;DHT22;27562;47.524;12.404;2023-07-30T14:55:09;20.00;99.90
41882;DHT22;27562;47.524;12.404;2023-07-30T14:57:35;19.90;99.90
41882;DHT22;27562;47.524;12.404;2023-07-30T15:00:01;19.90;99.90
41882;DHT22;27562;47.524;12.404;2023-07-30T15:02:28;20.00;99.90
41882;DHT22;27562;47.524;12.404;2023-07-30T15:04:55;20.10;99.90
41882;DHT22;27562;47.524;12.404;2023-07-30T15:07:21;20.20;99.90
41882;DHT22;27562;47.524;12.404;2023-07-30T15:09:53;20.20;99.90
41882;DHT22;27562;47.524;12.404;2023-07-30T15:12:20;20.20;99.90
41882;DHT22;27562;47.524;12.404;2023-07-30T15:14:46;20.30;99.90
41882;DHT22;27562;47.524;12.404;2023-07-30T15:17:12;20.30;99.90